sensor_id;sensor_type;location;lat;lon;timestamp;pressure;altitude;pressure_sealevel;temperature;humidity
48606;BME280;8482;54.396;18.590;2023-05-16T00:00:23;100121.78;;;13.95;92.14
48606;BME280;8482;54.396;18.590;2023-05-16T00:02:53;100117.63;;;13.93;92.29
48606;BME280;8482;54.396;18.590;2023-05-16T00:05:19;100110.31;;;13.95;92.19
48606;BME280;8482;54.396;18.590;2023-05-16T00:07:45;100110.63;;;13.92;92.27
48606;BME280;8482;54.396;18.590;2023-05-16T00:10:12;100117.63;;;13.93;92.34
48606;BME280;8482;54.396;18.590;2023-05-16T00:16:07;100107.25;;;13.90;92.00
48606;BME280;8482;54.396;18.590;2023-05-16T00:18:34;100109.94;;;13.90;91.84
48606;BME280;8482;54.396;18.590;2023-05-16T00:21:03;100101.56;;;13.85;91.65
48606;BME280;8482;54.396;18.590;2023-05-16T00:23:30;100097.22;;;13.84;90.95
48606;BME280;8482;54.396;18.590;2023-05-16T00:25:56;100088.56;;;13.82;90.95
48606;BME280;8482;54.396;18.590;2023-05-16T00:28:22;100097.41;;;13.82;90.89
48606;BME280;8482;54.396;18.590;2023-05-16T00:30:48;100099.88;;;13.84;90.96
48606;BME280;8482;54.396;18.590;2023-05-16T00:33:14;100103.41;;;13.84;91.01
48606;BME280;8482;54.396;18.590;2023-05-16T00:35:40;100097.91;;;13.86;90.89
48606;BME280;8482;54.396;18.590;2023-05-16T00:38:06;100098.91;;;13.85;90.82
48606;BME280;8482;54.396;18.590;2023-05-16T00:40:32;100098.91;;;13.85;90.63
48606;BME280;8482;54.396;18.590;2023-05-16T00:42:58;100098.06;;;13.84;90.42
48606;BME280;8482;54.396;18.590;2023-05-16T00:45:24;100094.91;;;13.81;90.41
48606;BME280;8482;54.396;18.590;2023-05-16T00:47:50;100095.88;;;13.79;90.83
48606;BME280;8482;54.396;18.590;2023-05-16T00:50:17;100098.38;;;13.81;90.68
48606;BME280;8482;54.396;18.590;2023-05-16T00:52:43;100100.22;;;13.81;90.93
48606;BME280;8482;54.396;18.590;2023-05-16T00:55:10;100098.38;;;13.81;90.51
48606;BME280;8482;54.396;18.590;2023-05-16T00:57:39;100093.91;;;13.82;90.41
48606;BME280;8482;54.396;18.590;2023-05-16T01:00:07;100102.91;;;13.81;90.68
48606;BME280;8482;54.396;18.590;2023-05-16T01:02:37;100085.72;;;13.75;90.13
48606;BME280;8482;54.396;18.590;2023-05-16T01:05:04;100101.53;;;13.76;90.10
48606;BME280;8482;54.396;18.590;2023-05-16T01:07:30;100093.69;;;13.75;90.30
48606;BME280;8482;54.396;18.590;2023-05-16T01:09:57;100099.47;;;13.70;90.09
48606;BME280;8482;54.396;18.590;2023-05-16T01:15:12;100098.84;;;13.68;90.11
48606;BME280;8482;54.396;18.590;2023-05-16T01:18:13;100101.50;;;13.68;90.29
48606;BME280;8482;54.396;18.590;2023-05-16T01:20:59;100104.97;;;13.69;90.54
48606;BME280;8482;54.396;18.590;2023-05-16T01:23:51;100101.31;;;13.70;90.59
48606;BME280;8482;54.396;18.590;2023-05-16T01:26:25;100093.34;;;13.70;90.96
48606;BME280;8482;54.396;18.590;2023-05-16T01:28:52;100101.31;;;13.70;91.11
48606;BME280;8482;54.396;18.590;2023-05-16T01:31:19;100096.31;;;13.67;91.25
48606;BME280;8482;54.396;18.590;2023-05-16T01:33:46;100104.97;;;13.69;90.66
48606;BME280;8482;54.396;18.590;2023-05-16T01:36:57;100104.47;;;13.65;90.48
48606;BME280;8482;54.396;18.590;2023-05-16T01:39:58;100104.59;;;13.63;90.43
48606;BME280;8482;54.396;18.590;2023-05-16T01:42:38;100101.13;;;13.63;90.03
48606;BME280;8482;54.396;18.590;2023-05-16T01:45:31;100098.44;;;13.63;90.21
48606;BME280;8482;54.396;18.590;2023-05-16T01:48:32;100100.81;;;13.66;90.10
48606;BME280;8482;54.396;18.590;2023-05-16T01:51:01;100104.31;;;13.67;90.57
48606;BME280;8482;54.396;18.590;2023-05-16T01:53:36;100093.50;;;13.68;90.84
48606;BME280;8482;54.396;18.590;2023-05-16T01:56:08;100098.16;;;13.66;90.49
48606;BME280;8482;54.396;18.590;2023-05-16T01:58:36;100092.13;;;13.64;90.58
48606;BME280;8482;54.396;18.590;2023-05-16T02:01:04;100093.63;;;13.67;90.09
48606;BME280;8482;54.396;18.590;2023-05-16T02:03:31;100093.50;;;13.68;90.51
48606;BME280;8482;54.396;18.590;2023-05-16T02:05:57;100104.16;;;13.68;89.91
48606;BME280;8482;54.396;18.590;2023-05-16T02:08:24;100107.81;;;13.67;89.51
48606;BME280;8482;54.396;18.590;2023-05-16T02:10:51;100108.81;;;13.66;89.15
48606;BME280;8482;54.396;18.590;2023-05-16T02:13:17;100109.78;;;13.65;89.42
48606;BME280;8482;54.396;18.590;2023-05-16T02:15:44;100108.13;;;13.64;89.24
48606;BME280;8482;54.396;18.590;2023-05-16T02:18:10;100104.59;;;13.63;88.85
48606;BME280;8482;54.396;18.590;2023-05-16T02:20:37;100098.94;;;13.58;88.49
48606;BME280;8482;54.396;18.590;2023-05-16T02:23:04;100105.63;;;13.62;88.26
48606;BME280;8482;54.396;18.590;2023-05-16T02:25:30;100119.59;;;13.64;87.81
48606;BME280;8482;54.396;18.590;2023-05-16T02:27:55;100110.78;;;13.64;87.94
48606;BME280;8482;54.396;18.590;2023-05-16T02:30:21;100103.09;;;13.61;87.20
48606;BME280;8482;54.396;18.590;2023-05-16T02:32:47;100108.28;;;13.62;87.71
48606;BME280;8482;54.396;18.590;2023-05-16T02:35:14;100113.47;;;13.64;87.69
48606;BME280;8482;54.396;18.590;2023-05-16T02:37:40;100122.44;;;13.63;87.49
48606;BME280;8482;54.396;18.590;2023-05-16T02:40:07;100119.09;;;13.61;87.81
48606;BME280;8482;54.396;18.590;2023-05-16T02:42:33;100113.75;;;13.61;87.26
48606;BME280;8482;54.396;18.590;2023-05-16T02:44:59;100122.75;;;13.60;87.72
48606;BME280;8482;54.396;18.590;2023-05-16T02:47:25;100116.59;;;13.59;87.70
48606;BME280;8482;54.396;18.590;2023-05-16T02:49:51;100118.41;;;13.59;87.63
48606;BME280;8482;54.396;18.590;2023-05-16T02:52:18;100119.25;;;13.59;87.88
48606;BME280;8482;54.396;18.590;2023-05-16T02:54:44;100118.41;;;13.59;88.43
48606;BME280;8482;54.396;18.590;2023-05-16T02:57:09;100116.59;;;13.59;88.51
48606;BME280;8482;54.396;18.590;2023-05-16T02:59:35;100116.59;;;13.59;88.63
48606;BME280;8482;54.396;18.590;2023-05-16T03:02:01;100120.25;;;13.58;88.87
48606;BME280;8482;54.396;18.590;2023-05-16T03:04:27;100115.06;;;13.57;89.25
48606;BME280;8482;54.396;18.590;2023-05-16T03:06:53;100118.06;;;13.54;89.44
48606;BME280;8482;54.396;18.590;2023-05-16T03:09:18;100118.75;;;13.56;89.60
48606;BME280;8482;54.396;18.590;2023-05-16T03:11:45;100118.75;;;13.56;89.96
48606;BME280;8482;54.396;18.590;2023-05-16T03:14:11;100116.91;;;13.56;90.27
48606;BME280;8482;54.396;18.590;2023-05-16T03:16:37;100126.56;;;13.57;90.26
48606;BME280;8482;54.396;18.590;2023-05-16T03:19:04;100121.53;;;13.54;90.62
48606;BME280;8482;54.396;18.590;2023-05-16T03:21:30;100130.91;;;13.58;91.13
48606;BME280;8482;54.396;18.590;2023-05-16T03:23:56;100131.59;;;13.60;90.76
48606;BME280;8482;54.396;18.590;2023-05-16T03:26:25;100125.28;;;13.61;90.80
48606;BME280;8482;54.396;18.590;2023-05-16T03:28:52;100124.72;;;13.58;90.72
48606;BME280;8482;54.396;18.590;2023-05-16T03:31:18;100126.09;;;13.62;90.59
48606;BME280;8482;54.396;18.590;2023-05-16T03:33:44;100114.91;;;13.58;90.56
48606;BME280;8482;54.396;18.590;2023-05-16T03:36:10;100125.09;;;13.63;90.57
48606;BME280;8482;54.396;18.590;2023-05-16T03:38:36;100131.25;;;13.63;90.43
48606;BME280;8482;54.396;18.590;2023-05-16T03:41:02;100134.94;;;13.62;90.59
48606;BME280;8482;54.396;18.590;2023-05-16T03:43:28;100134.25;;;13.60;90.34
48606;BME280;8482;54.396;18.590;2023-05-16T03:45:54;100144.59;;;13.63;90.32
48606;BME280;8482;54.396;18.590;2023-05-16T03:48:20;100149.56;;;13.58;90.19
48606;BME280;8482;54.396;18.590;2023-05-16T03:50:46;100143.06;;;13.61;89.70
48606;BME280;8482;54.396;18.590;2023-05-16T03:53:12;100149.41;;;13.60;87.71
48606;BME280;8482;54.396;18.590;2023-05-16T03:55:38;100146.03;;;13.58;86.99
48606;BME280;8482;54.396;18.590;2023-05-16T03:58:04;100152.84;;;13.52;86.48
48606;BME280;8482;54.396;18.590;2023-05-16T04:00:30;100159.00;;;13.53;86.08
48606;BME280;8482;54.396;18.590;2023-05-16T04:02:56;100173.31;;;13.52;84.89
48606;BME280;8482;54.396;18.590;2023-05-16T04:05:21;100166.94;;;13.44;85.50
48606;BME280;8482;54.396;18.590;2023-05-16T04:07:47;100173.69;;;13.39;85.16
48606;BME280;8482;54.396;18.590;2023-05-16T04:10:13;100174.16;;;13.34;84.52
48606;BME280;8482;54.396;18.590;2023-05-16T04:12:39;100180.75;;;13.30;84.81
48606;BME280;8482;54.396;18.590;2023-05-16T04:15:06;100185.25;;;13.29;84.71
48606;BME280;8482;54.396;18.590;2023-05-16T04:17:33;100188.56;;;13.23;84.83
48606;BME280;8482;54.396;18.590;2023-05-16T04:19:58;100196.31;;;13.16;85.38
48606;BME280;8482;54.396;18.590;2023-05-16T04:22:25;100181.47;;;13.14;85.65
48606;BME280;8482;54.396;18.590;2023-05-16T04:24:51;100190.44;;;13.13;85.85
48606;BME280;8482;54.396;18.590;2023-05-16T04:27:17;100199.28;;;13.13;86.20
48606;BME280;8482;54.396;18.590;2023-05-16T04:29:43;100197.59;;;13.12;86.38
48606;BME280;8482;54.396;18.590;2023-05-16T04:32:09;100192.72;;;13.08;85.33
48606;BME280;8482;54.396;18.590;2023-05-16T04:34:35;100189.50;;;13.04;85.58
48606;BME280;8482;54.396;18.590;2023-05-16T04:37:03;100187.69;;;13.05;85.30
48606;BME280;8482;54.396;18.590;2023-05-16T04:39:30;100190.81;;;13.00;84.35
48606;BME280;8482;54.396;18.590;2023-05-16T04:41:56;100195.63;;;12.96;84.24
48606;BME280;8482;54.396;18.590;2023-05-16T04:44:24;100187.75;;;12.95;84.68
48606;BME280;8482;54.396;18.590;2023-05-16T04:46:51;100196.72;;;12.94;84.40
48606;BME280;8482;54.396;18.590;2023-05-16T04:49:20;100196.59;;;12.95;84.23
48606;BME280;8482;54.396;18.590;2023-05-16T04:51:47;100201.06;;;12.95;83.98
48606;BME280;8482;54.396;18.590;2023-05-16T04:54:14;100191.69;;;12.91;84.07
48606;BME280;8482;54.396;18.590;2023-05-16T04:56:40;100203.72;;;12.95;83.45
48606;BME280;8482;54.396;18.590;2023-05-16T04:59:05;100216.22;;;12.94;83.16
48606;BME280;8482;54.396;18.590;2023-05-16T05:01:31;100211.34;;;12.90;83.28
48606;BME280;8482;54.396;18.590;2023-05-16T05:03:57;100220.31;;;12.88;83.16
48606;BME280;8482;54.396;18.590;2023-05-16T05:06:23;100209.28;;;12.83;82.83
48606;BME280;8482;54.396;18.590;2023-05-16T05:08:49;100222.06;;;12.80;83.35
48606;BME280;8482;54.396;18.590;2023-05-16T05:11:14;100218.00;;;12.76;83.53
48606;BME280;8482;54.396;18.590;2023-05-16T05:13:40;100220.81;;;12.74;83.85
48606;BME280;8482;54.396;18.590;2023-05-16T05:16:06;100224.75;;;12.70;83.54
48606;BME280;8482;54.396;18.590;2023-05-16T05:18:32;100223.25;;;12.67;84.13
48606;BME280;8482;54.396;18.590;2023-05-16T05:20:58;100220.56;;;12.67;83.64
48606;BME280;8482;54.396;18.590;2023-05-16T05:23:24;100227.00;;;12.65;83.85
48606;BME280;8482;54.396;18.590;2023-05-16T05:25:50;100234.16;;;12.64;84.30
48606;BME280;8482;54.396;18.590;2023-05-16T05:28:16;100235.97;;;12.64;84.05
48606;BME280;8482;54.396;18.590;2023-05-16T05:30:42;100247.63;;;12.63;83.99
48606;BME280;8482;54.396;18.590;2023-05-16T05:33:15;100256.16;;;12.66;84.01
48606;BME280;8482;54.396;18.590;2023-05-16T05:35:41;100247.31;;;12.66;84.16
48606;BME280;8482;54.396;18.590;2023-05-16T05:38:07;100249.84;;;12.67;83.88
48606;BME280;8482;54.396;18.590;2023-05-16T05:40:32;100231.53;;;12.54;84.23
48606;BME280;8482;54.396;18.590;2023-05-16T05:42:58;100275.06;;;12.63;84.32
48606;BME280;8482;54.396;18.590;2023-05-16T05:45:24;100261.59;;;12.65;83.95
48606;BME280;8482;54.396;18.590;2023-05-16T05:47:50;100260.09;;;12.62;84.19
48606;BME280;8482;54.396;18.590;2023-05-16T05:50:16;100266.94;;;12.65;84.78
48606;BME280;8482;54.396;18.590;2023-05-16T05:52:42;100256.59;;;12.62;84.49
48606;BME280;8482;54.396;18.590;2023-05-16T05:55:08;100263.16;;;12.67;84.70
48606;BME280;8482;54.396;18.590;2023-05-16T05:57:34;100271.84;;;12.69;84.48
48606;BME280;8482;54.396;18.590;2023-05-16T06:00:00;100277.97;;;12.70;84.83
48606;BME280;8482;54.396;18.590;2023-05-16T06:02:26;100274.16;;;12.72;84.54
48606;BME280;8482;54.396;18.590;2023-05-16T06:04:52;100270.25;;;12.77;84.65
48606;BME280;8482;54.396;18.590;2023-05-16T06:07:17;100278.75;;;12.80;84.59
48606;BME280;8482;54.396;18.590;2023-05-16T06:09:44;100283.81;;;12.83;84.25
48606;BME280;8482;54.396;18.590;2023-05-16T06:12:09;100293.19;;;12.87;84.09
48606;BME280;8482;54.396;18.590;2023-05-16T06:14:35;100296.81;;;12.86;84.22
48606;BME280;8482;54.396;18.590;2023-05-16T06:17:01;100313.50;;;12.88;84.14
48606;BME280;8482;54.396;18.590;2023-05-16T06:19:27;100318.50;;;12.92;83.22
48606;BME280;8482;54.396;18.590;2023-05-16T06:21:53;100324.81;;;12.91;83.04
48606;BME280;8482;54.396;18.590;2023-05-16T06:24:18;100318.13;;;12.86;83.33
48606;BME280;8482;54.396;18.590;2023-05-16T06:26:44;100326.19;;;12.95;82.99
48606;BME280;8482;54.396;18.590;2023-05-16T06:29:14;100323.94;;;13.00;82.89
48606;BME280;8482;54.396;18.590;2023-05-16T06:31:40;100328.28;;;13.01;82.89
48606;BME280;8482;54.396;18.590;2023-05-16T06:34:06;100329.09;;;13.01;82.64
48606;BME280;8482;54.396;18.590;2023-05-16T06:36:32;100341.28;;;13.04;82.58
48606;BME280;8482;54.396;18.590;2023-05-16T06:38:57;100349.13;;;13.06;83.23
48606;BME280;8482;54.396;18.590;2023-05-16T06:41:23;100363.53;;;13.13;82.55
48606;BME280;8482;54.396;18.590;2023-05-16T06:43:49;100377.25;;;13.18;82.52
48606;BME280;8482;54.396;18.590;2023-05-16T06:46:15;100370.66;;;13.22;82.43
48606;BME280;8482;54.396;18.590;2023-05-16T06:48:40;100376.50;;;13.26;82.37
48606;BME280;8482;54.396;18.590;2023-05-16T06:51:06;100378.19;;;13.27;81.72
48606;BME280;8482;54.396;18.590;2023-05-16T06:53:32;100393.31;;;13.26;81.22
48606;BME280;8482;54.396;18.590;2023-05-16T06:55:58;100379.00;;;13.27;81.09
48606;BME280;8482;54.396;18.590;2023-05-16T06:58:24;100387.75;;;13.19;80.79
48606;BME280;8482;54.396;18.590;2023-05-16T07:00:50;100411.84;;;13.28;80.97
48606;BME280;8482;54.396;18.590;2023-05-16T07:03:16;100418.16;;;13.27;80.58
48606;BME280;8482;54.396;18.590;2023-05-16T07:05:41;100414.34;;;13.29;80.73
48606;BME280;8482;54.396;18.590;2023-05-16T07:08:11;100441.97;;;13.28;78.49
48606;BME280;8482;54.396;18.590;2023-05-16T07:10:38;100454.75;;;13.25;78.30
48606;BME280;8482;54.396;18.590;2023-05-16T07:13:04;100444.81;;;13.17;78.64
48606;BME280;8482;54.396;18.590;2023-05-16T07:15:30;100459.53;;;13.11;79.26
48606;BME280;8482;54.396;18.590;2023-05-16T07:17:56;100453.38;;;13.11;79.00
48606;BME280;8482;54.396;18.590;2023-05-16T07:20:22;100460.69;;;13.09;79.49
48606;BME280;8482;54.396;18.590;2023-05-16T07:22:48;100455.66;;;13.06;79.68
48606;BME280;8482;54.396;18.590;2023-05-16T07:25:14;100467.53;;;13.11;79.31
48606;BME280;8482;54.396;18.590;2023-05-16T07:27:41;100475.53;;;13.11;78.66
48606;BME280;8482;54.396;18.590;2023-05-16T07:30:13;100482.28;;;13.06;79.15
48606;BME280;8482;54.396;18.590;2023-05-16T07:32:39;100495.88;;;13.02;79.50
48606;BME280;8482;54.396;18.590;2023-05-16T07:35:06;100502.03;;;13.03;79.89
48606;BME280;8482;54.396;18.590;2023-05-16T07:37:32;100494.34;;;13.00;80.50
48606;BME280;8482;54.396;18.590;2023-05-16T07:39:58;100505.53;;;13.03;80.86
48606;BME280;8482;54.396;18.590;2023-05-16T07:42:24;100499.06;;;13.06;81.13
48606;BME280;8482;54.396;18.590;2023-05-16T07:44:50;100521.63;;;13.12;81.01
48606;BME280;8482;54.396;18.590;2023-05-16T07:47:15;100521.75;;;13.20;80.47
48606;BME280;8482;54.396;18.590;2023-05-16T07:49:41;100517.84;;;13.14;80.02
48606;BME280;8482;54.396;18.590;2023-05-16T07:52:07;100541.94;;;13.23;80.33
48606;BME280;8482;54.396;18.590;2023-05-16T07:54:34;100553.69;;;13.30;79.69
48606;BME280;8482;54.396;18.590;2023-05-16T07:57:01;100553.81;;;13.38;79.58
48606;BME280;8482;54.396;18.590;2023-05-16T07:59:27;100561.53;;;13.31;78.97
48606;BME280;8482;54.396;18.590;2023-05-16T08:01:53;100567.00;;;13.30;79.46
48606;BME280;8482;54.396;18.590;2023-05-16T08:04:21;100572.31;;;13.30;80.35
48606;BME280;8482;54.396;18.590;2023-05-16T08:06:46;100583.28;;;13.27;80.45
48606;BME280;8482;54.396;18.590;2023-05-16T08:09:12;100590.00;;;13.31;81.16
48606;BME280;8482;54.396;18.590;2023-05-16T08:11:38;100590.25;;;13.38;80.84
48606;BME280;8482;54.396;18.590;2023-05-16T08:14:10;100585.78;;;13.38;81.11
48606;BME280;8482;54.396;18.590;2023-05-16T08:16:36;100588.19;;;13.41;80.55
48606;BME280;8482;54.396;18.590;2023-05-16T08:19:02;100597.03;;;13.42;80.80
48606;BME280;8482;54.396;18.590;2023-05-16T08:21:27;100604.19;;;13.41;80.85
48606;BME280;8482;54.396;18.590;2023-05-16T08:23:54;100609.22;;;13.34;80.74
48606;BME280;8482;54.396;18.590;2023-05-16T08:26:20;100618.34;;;13.42;81.31
48606;BME280;8482;54.396;18.590;2023-05-16T08:28:46;100622.09;;;13.39;81.21
48606;BME280;8482;54.396;18.590;2023-05-16T08:31:12;100631.66;;;13.42;81.79
48606;BME280;8482;54.396;18.590;2023-05-16T08:33:38;100640.63;;;13.41;81.88
48606;BME280;8482;54.396;18.590;2023-05-16T08:36:04;100646.09;;;13.39;82.02
48606;BME280;8482;54.396;18.590;2023-05-16T08:38:30;100654.50;;;13.44;82.39
48606;BME280;8482;54.396;18.590;2023-05-16T08:40:56;100649.88;;;13.46;82.63
48606;BME280;8482;54.396;18.590;2023-05-16T08:43:22;100660.41;;;13.48;82.72
48606;BME280;8482;54.396;18.590;2023-05-16T08:45:48;100663.91;;;13.48;83.11
48606;BME280;8482;54.396;18.590;2023-05-16T08:48:15;100668.41;;;13.48;82.83
48606;BME280;8482;54.396;18.590;2023-05-16T08:50:42;100675.81;;;13.44;83.50
48606;BME280;8482;54.396;18.590;2023-05-16T08:53:09;100688.72;;;13.39;83.70
48606;BME280;8482;54.396;18.590;2023-05-16T08:55:37;100689.28;;;13.43;83.58
48606;BME280;8482;54.396;18.590;2023-05-16T08:58:04;100697.28;;;13.43;83.62
48606;BME280;8482;54.396;18.590;2023-05-16T09:00:30;100691.25;;;13.41;83.29
48606;BME280;8482;54.396;18.590;2023-05-16T09:02:57;100689.44;;;13.41;83.25
48606;BME280;8482;54.396;18.590;2023-05-16T09:05:23;100679.88;;;13.39;82.58
48606;BME280;8482;54.396;18.590;2023-05-16T09:07:50;100700.94;;;13.42;82.12
48606;BME280;8482;54.396;18.590;2023-05-16T09:10:15;100706.25;;;13.42;81.80
48606;BME280;8482;54.396;18.590;2023-05-16T09:12:42;100716.50;;;13.46;81.70
48606;BME280;8482;54.396;18.590;2023-05-16T09:15:09;100717.19;;;13.48;81.32
48606;BME280;8482;54.396;18.590;2023-05-16T09:20:23;100724.75;;;13.53;80.49
48606;BME280;8482;54.396;18.590;2023-05-16T09:22:56;100723.22;;;13.51;80.34
48606;BME280;8482;54.396;18.590;2023-05-16T09:25:27;100713.81;;;13.56;80.00
48606;BME280;8482;54.396;18.590;2023-05-16T09:27:58;100715.66;;;13.56;80.42
48606;BME280;8482;54.396;18.590;2023-05-16T09:30:33;100699.22;;;13.70;79.28
48606;BME280;8482;54.396;18.590;2023-05-16T09:32:59;100711.81;;;13.78;79.11
48606;BME280;8482;54.396;18.590;2023-05-16T09:35:26;100741.41;;;13.85;79.16
48606;BME280;8482;54.396;18.590;2023-05-16T09:37:51;100730.75;;;13.94;78.94
48606;BME280;8482;54.396;18.590;2023-05-16T09:40:22;100728.88;;;14.05;78.15
48606;BME280;8482;54.396;18.590;2023-05-16T09:43:08;100745.84;;;14.14;77.35
48606;BME280;8482;54.396;18.590;2023-05-16T09:45:35;100755.38;;;14.16;76.78
48606;BME280;8482;54.396;18.590;2023-05-16T09:48:07;100759.31;;;14.22;76.37
48606;BME280;8482;54.396;18.590;2023-05-16T09:50:35;100754.13;;;14.20;76.40
48606;BME280;8482;54.396;18.590;2023-05-16T09:53:03;100778.25;;;14.29;76.21
48606;BME280;8482;54.396;18.590;2023-05-16T09:55:30;100771.34;;;14.36;75.89
48606;BME280;8482;54.396;18.590;2023-05-16T09:57:56;100782.84;;;14.36;75.62
48606;BME280;8482;54.396;18.590;2023-05-16T10:00:32;100788.19;;;14.36;75.85
48606;BME280;8482;54.396;18.590;2023-05-16T10:03:01;100791.88;;;14.35;75.65
48606;BME280;8482;54.396;18.590;2023-05-16T10:05:28;100798.44;;;14.41;74.98
48606;BME280;8482;54.396;18.590;2023-05-16T10:07:57;100796.19;;;14.36;75.02
48606;BME280;8482;54.396;18.590;2023-05-16T10:10:24;100797.03;;;14.37;75.33
48606;BME280;8482;54.396;18.590;2023-05-16T10:12:51;100793.94;;;14.41;74.99
48606;BME280;8482;54.396;18.590;2023-05-16T10:15:19;100802.22;;;14.38;74.93
48606;BME280;8482;54.396;18.590;2023-05-16T10:17:50;100809.25;;;14.39;74.98
48606;BME280;8482;54.396;18.590;2023-05-16T10:20:19;100800.97;;;14.43;74.90
48606;BME280;8482;54.396;18.590;2023-05-16T10:22:48;100797.31;;;14.44;74.67
48606;BME280;8482;54.396;18.590;2023-05-16T10:25:27;100790.25;;;14.52;74.98
48606;BME280;8482;54.396;18.590;2023-05-16T10:27:54;100790.09;;;14.54;74.92
48606;BME280;8482;54.396;18.590;2023-05-16T10:30:21;100792.88;;;14.62;74.68
48606;BME280;8482;54.396;18.590;2023-05-16T10:32:50;100788.09;;;14.66;74.46
48606;BME280;8482;54.396;18.590;2023-05-16T10:35:16;100783.16;;;14.71;74.12
48606;BME280;8482;54.396;18.590;2023-05-16T10:37:43;100778.94;;;14.78;73.84
48606;BME280;8482;54.396;18.590;2023-05-16T10:40:09;100778.66;;;14.81;73.50
48606;BME280;8482;54.396;18.590;2023-05-16T10:42:36;100782.81;;;14.94;71.84
48606;BME280;8482;54.396;18.590;2023-05-16T10:45:19;100770.97;;;14.96;72.18
48606;BME280;8482;54.396;18.590;2023-05-16T10:48:00;100790.72;;;15.04;71.71
48606;BME280;8482;54.396;18.590;2023-05-16T10:50:45;100782.72;;;15.04;71.90
48606;BME280;8482;54.396;18.590;2023-05-16T10:53:31;100789.69;;;15.14;71.95
48606;BME280;8482;54.396;18.590;2023-05-16T11:12:00;100803.25;;;15.67;67.55
48606;BME280;8482;54.396;18.590;2023-05-16T11:14:36;100820.81;;;15.70;67.22
48606;BME280;8482;54.396;18.590;2023-05-16T11:17:13;100827.22;;;15.77;65.43
48606;BME280;8482;54.396;18.590;2023-05-16T11:19:49;100831.72;;;15.76;65.93
48606;BME280;8482;54.396;18.590;2023-05-16T11:25:00;100845.09;;;15.76;65.36
48606;BME280;8482;54.396;18.590;2023-05-16T11:27:34;100843.06;;;15.70;65.95
48606;BME280;8482;54.396;18.590;2023-05-16T11:32:32;100855.56;;;15.70;66.28
48606;BME280;8482;54.396;18.590;2023-05-16T11:34:59;100849.84;;;15.65;66.06
48606;BME280;8482;54.396;18.590;2023-05-16T11:37:27;100882.94;;;15.63;66.55
48606;BME280;8482;54.396;18.590;2023-05-16T11:40:00;100875.28;;;15.69;66.24
48606;BME280;8482;54.396;18.590;2023-05-16T11:42:32;100876.97;;;15.70;65.51
48606;BME280;8482;54.396;18.590;2023-05-16T11:45:11;100886.91;;;15.77;65.31
48606;BME280;8482;54.396;18.590;2023-05-16T11:47:39;100896.59;;;15.78;65.59
48606;BME280;8482;54.396;18.590;2023-05-16T11:50:10;100905.31;;;15.81;65.46
48606;BME280;8482;54.396;18.590;2023-05-16T11:52:37;100920.22;;;15.83;64.98
48606;BME280;8482;54.396;18.590;2023-05-16T11:55:07;100905.31;;;15.81;65.05
48606;BME280;8482;54.396;18.590;2023-05-16T11:57:38;100917.47;;;15.75;65.47
48606;BME280;8482;54.396;18.590;2023-05-16T12:00:21;100924.66;;;15.74;65.98
48606;BME280;8482;54.396;18.590;2023-05-16T12:02:49;100922.81;;;15.75;65.75
48606;BME280;8482;54.396;18.590;2023-05-16T12:05:17;100932.00;;;15.72;65.69
48606;BME280;8482;54.396;18.590;2023-05-16T12:07:45;100916.66;;;15.74;65.10
48606;BME280;8482;54.396;18.590;2023-05-16T12:10:14;100930.56;;;15.78;64.93
48606;BME280;8482;54.396;18.590;2023-05-16T12:12:44;100927.19;;;15.76;65.17
48606;BME280;8482;54.396;18.590;2023-05-16T12:15:12;100925.50;;;15.75;64.98
48606;BME280;8482;54.396;18.590;2023-05-16T12:17:40;100925.09;;;15.70;65.34
48606;BME280;8482;54.396;18.590;2023-05-16T12:20:09;100922.13;;;15.73;65.56
48606;BME280;8482;54.396;18.590;2023-05-16T12:22:43;100918.06;;;15.69;65.44
48606;BME280;8482;54.396;18.590;2023-05-16T12:25:46;100936.03;;;15.76;65.62
48606;BME280;8482;54.396;18.590;2023-05-16T12:28:14;100936.72;;;15.78;65.77
48606;BME280;8482;54.396;18.590;2023-05-16T12:30:42;100941.34;;;15.86;66.08
48606;BME280;8482;54.396;18.590;2023-05-16T12:33:12;100946.47;;;15.98;64.53
48606;BME280;8482;54.396;18.590;2023-05-16T12:35:41;100964.38;;;15.97;64.89
48606;BME280;8482;54.396;18.590;2023-05-16T12:38:10;100979.44;;;15.98;64.98
48606;BME280;8482;54.396;18.590;2023-05-16T12:40:38;100950.47;;;15.93;64.59
48606;BME280;8482;54.396;18.590;2023-05-16T12:43:21;100960.94;;;15.87;64.77
48606;BME280;8482;54.396;18.590;2023-05-16T12:45:51;100965.84;;;15.82;64.68
48606;BME280;8482;54.396;18.590;2023-05-16T12:48:18;100958.41;;;15.75;64.86
48606;BME280;8482;54.396;18.590;2023-05-16T12:50:44;100986.59;;;15.70;64.58
48606;BME280;8482;54.396;18.590;2023-05-16T12:53:15;100995.94;;;15.66;64.62
48606;BME280;8482;54.396;18.590;2023-05-16T12:55:42;100989.09;;;15.53;64.93
48606;BME280;8482;54.396;18.590;2023-05-16T12:58:10;101007.56;;;15.46;65.52
48606;BME280;8482;54.396;18.590;2023-05-16T13:00:36;100996.28;;;15.43;65.75
48606;BME280;8482;54.396;18.590;2023-05-16T13:03:04;100998.31;;;15.41;65.90
48606;BME280;8482;54.396;18.590;2023-05-16T13:05:31;101002.50;;;15.43;64.76
48606;BME280;8482;54.396;18.590;2023-05-16T13:07:56;101005.47;;;15.40;64.76
48606;BME280;8482;54.396;18.590;2023-05-16T13:10:22;101016.75;;;15.34;64.52
48606;BME280;8482;54.396;18.590;2023-05-16T13:12:50;101023.50;;;15.28;64.32
48606;BME280;8482;54.396;18.590;2023-05-16T13:15:16;101047.88;;;15.25;64.53
48606;BME280;8482;54.396;18.590;2023-05-16T13:17:42;101043.78;;;15.21;64.13
48606;BME280;8482;54.396;18.590;2023-05-16T13:20:12;101047.63;;;15.09;64.50
48606;BME280;8482;54.396;18.590;2023-05-16T13:22:41;101067.72;;;15.03;64.82
48606;BME280;8482;54.396;18.590;2023-05-16T13:25:08;101064.09;;;14.94;65.05